Lambert, Montana
Current Conditions -  °F | °C
As of 12:35 PM on Friday 31 Oct 2014 (Local Time) from KSDY Reporting Station
Clear Clear  
Wind Chill: 38°   Ceiling: Unl
Heat Index: 46°   Visibility: 10mi
Dew Point: 28°   Wind: 25mph
Humidity: 50%   Direction: 140°SE
Pressure: 30.1"   Gusts: 30mph
Location:  47.68°N, 104.62°W
Report Text: KSDY 311835Z AUTO 14022G26KT 10SM CLR 08/M02 A3010 RMK AO1
Loading
Personal Weather Stations






























Interactive Weather Map
Tropical Storm Tracking
New forecast layout! Learn more

10-Day Weather Forecast

Advertisements
Track Severe Weather on mobile